sensor_id;sensor_type;location;lat;lon;timestamp;P1;durP1;ratioP1;P2;durP2;ratioP2
18100;SDS011;9177;49.156;8.142;2024-02-16T00:00:05;3.63;;;2.97;;
18100;SDS011;9177;49.156;8.142;2024-02-16T00:02:33;3.83;;;2.77;;
18100;SDS011;9177;49.156;8.142;2024-02-16T00:05:00;4.07;;;2.80;;
18100;SDS011;9177;49.156;8.142;2024-02-16T00:07:28;3.37;;;3.07;;
18100;SDS011;9177;49.156;8.142;2024-02-16T00:09:56;4.43;;;3.13;;
18100;SDS011;9177;49.156;8.142;2024-02-16T00:12:23;3.73;;;3.17;;
18100;SDS011;9177;49.156;8.142;2024-02-16T00:14:50;4.23;;;2.97;;
18100;SDS011;9177;49.156;8.142;2024-02-16T00:17:17;3.97;;;3.10;;
18100;SDS011;9177;49.156;8.142;2024-02-16T00:19:44;3.60;;;3.03;;
18100;SDS011;9177;49.156;8.142;2024-02-16T00:22:11;3.17;;;2.73;;
18100;SDS011;9177;49.156;8.142;2024-02-16T00:24:40;4.80;;;2.80;;
18100;SDS011;9177;49.156;8.142;2024-02-16T00:27:07;4.83;;;3.00;;
18100;SDS011;9177;49.156;8.142;2024-02-16T00:29:34;3.87;;;2.83;;
18100;SDS011;9177;49.156;8.142;2024-02-16T00:32:03;2.67;;;2.43;;
18100;SDS011;9177;49.156;8.142;2024-02-16T00:34:32;3.07;;;2.67;;
18100;SDS011;9177;49.156;8.142;2024-02-16T00:37:00;2.70;;;2.47;;
18100;SDS011;9177;49.156;8.142;2024-02-16T00:39:27;3.37;;;2.73;;
18100;SDS011;9177;49.156;8.142;2024-02-16T00:41:56;3.83;;;3.10;;
18100;SDS011;9177;49.156;8.142;2024-02-16T00:44:23;3.03;;;2.70;;
18100;SDS011;9177;49.156;8.142;2024-02-16T00:46:51;3.10;;;2.80;;
18100;SDS011;9177;49.156;8.142;2024-02-16T00:49:21;3.73;;;2.90;;
18100;SDS011;9177;49.156;8.142;2024-02-16T00:51:48;3.67;;;2.80;;
18100;SDS011;9177;49.156;8.142;2024-02-16T00:54:16;3.53;;;2.70;;
18100;SDS011;9177;49.156;8.142;2024-02-16T00:56:43;3.23;;;2.80;;
18100;SDS011;9177;49.156;8.142;2024-02-16T00:59:12;3.50;;;2.83;;
18100;SDS011;9177;49.156;8.142;2024-02-16T01:01:39;2.53;;;2.30;;
18100;SDS011;9177;49.156;8.142;2024-02-16T01:04:06;2.90;;;2.70;;
18100;SDS011;9177;49.156;8.142;2024-02-16T01:06:33;3.93;;;2.77;;
18100;SDS011;9177;49.156;8.142;2024-02-16T01:09:01;2.87;;;2.53;;
18100;SDS011;9177;49.156;8.142;2024-02-16T01:11:28;3.40;;;2.73;;
18100;SDS011;9177;49.156;8.142;2024-02-16T01:13:55;3.70;;;2.80;;
18100;SDS011;9177;49.156;8.142;2024-02-16T01:16:24;3.00;;;2.60;;
18100;SDS011;9177;49.156;8.142;2024-02-16T01:18:51;5.27;;;2.80;;
18100;SDS011;9177;49.156;8.142;2024-02-16T01:21:18;2.80;;;2.30;;
18100;SDS011;9177;49.156;8.142;2024-02-16T01:23:46;3.20;;;2.60;;
18100;SDS011;9177;49.156;8.142;2024-02-16T01:26:13;3.37;;;2.87;;
18100;SDS011;9177;49.156;8.142;2024-02-16T01:28:40;4.50;;;2.43;;
18100;SDS011;9177;49.156;8.142;2024-02-16T01:31:07;3.90;;;2.50;;
18100;SDS011;9177;49.156;8.142;2024-02-16T01:33:37;2.80;;;2.53;;
18100;SDS011;9177;49.156;8.142;2024-02-16T01:36:05;2.70;;;2.50;;
18100;SDS011;9177;49.156;8.142;2024-02-16T01:38:32;3.33;;;2.70;;
18100;SDS011;9177;49.156;8.142;2024-02-16T01:40:59;3.10;;;2.80;;
18100;SDS011;9177;49.156;8.142;2024-02-16T01:43:27;3.13;;;2.63;;
18100;SDS011;9177;49.156;8.142;2024-02-16T01:45:54;2.63;;;2.40;;
18100;SDS011;9177;49.156;8.142;2024-02-16T01:48:22;2.70;;;2.50;;
18100;SDS011;9177;49.156;8.142;2024-02-16T01:50:51;2.93;;;2.63;;
18100;SDS011;9177;49.156;8.142;2024-02-16T01:53:20;3.03;;;2.70;;
18100;SDS011;9177;49.156;8.142;2024-02-16T01:55:48;2.90;;;2.60;;
18100;SDS011;9177;49.156;8.142;2024-02-16T01:58:16;2.80;;;2.60;;
18100;SDS011;9177;49.156;8.142;2024-02-16T02:00:44;3.70;;;2.40;;
18100;SDS011;9177;49.156;8.142;2024-02-16T02:03:11;3.27;;;2.60;;
18100;SDS011;9177;49.156;8.142;2024-02-16T02:05:43;2.80;;;2.50;;
18100;SDS011;9177;49.156;8.142;2024-02-16T02:08:13;2.90;;;2.60;;
18100;SDS011;9177;49.156;8.142;2024-02-16T02:10:41;2.80;;;2.50;;
18100;SDS011;9177;49.156;8.142;2024-02-16T02:13:09;3.00;;;2.20;;
18100;SDS011;9177;49.156;8.142;2024-02-16T02:15:36;2.90;;;2.60;;
18100;SDS011;9177;49.156;8.142;2024-02-16T02:18:04;2.57;;;2.37;;
18100;SDS011;9177;49.156;8.142;2024-02-16T02:20:31;3.57;;;2.63;;
18100;SDS011;9177;49.156;8.142;2024-02-16T02:23:00;3.93;;;2.30;;
18100;SDS011;9177;49.156;8.142;2024-02-16T02:25:29;2.97;;;2.67;;
18100;SDS011;9177;49.156;8.142;2024-02-16T02:27:56;3.83;;;2.43;;
18100;SDS011;9177;49.156;8.142;2024-02-16T02:30:23;2.77;;;2.37;;
18100;SDS011;9177;49.156;8.142;2024-02-16T02:32:50;2.50;;;2.10;;
18100;SDS011;9177;49.156;8.142;2024-02-16T02:35:17;3.13;;;2.73;;
18100;SDS011;9177;49.156;8.142;2024-02-16T02:37:45;2.80;;;2.50;;
18100;SDS011;9177;49.156;8.142;2024-02-16T02:40:14;3.30;;;2.20;;
18100;SDS011;9177;49.156;8.142;2024-02-16T02:42:41;3.93;;;2.27;;
18100;SDS011;9177;49.156;8.142;2024-02-16T02:45:09;2.57;;;2.17;;
18100;SDS011;9177;49.156;8.142;2024-02-16T02:47:36;2.30;;;2.10;;
18100;SDS011;9177;49.156;8.142;2024-02-16T02:50:03;2.43;;;2.10;;
18100;SDS011;9177;49.156;8.142;2024-02-16T02:52:32;3.20;;;2.60;;
18100;SDS011;9177;49.156;8.142;2024-02-16T02:54:59;3.07;;;2.20;;
18100;SDS011;9177;49.156;8.142;2024-02-16T02:57:28;2.63;;;2.30;;
18100;SDS011;9177;49.156;8.142;2024-02-16T03:00:00;2.67;;;2.30;;
18100;SDS011;9177;49.156;8.142;2024-02-16T03:02:35;3.20;;;2.73;;
18100;SDS011;9177;49.156;8.142;2024-02-16T03:05:04;3.10;;;2.30;;
18100;SDS011;9177;49.156;8.142;2024-02-16T03:07:33;2.33;;;2.13;;
18100;SDS011;9177;49.156;8.142;2024-02-16T03:10:01;2.20;;;2.00;;
18100;SDS011;9177;49.156;8.142;2024-02-16T03:12:31;2.27;;;2.00;;
18100;SDS011;9177;49.156;8.142;2024-02-16T03:14:58;2.33;;;2.13;;
18100;SDS011;9177;49.156;8.142;2024-02-16T03:17:25;2.57;;;1.90;;
18100;SDS011;9177;49.156;8.142;2024-02-16T03:19:53;3.03;;;2.10;;
18100;SDS011;9177;49.156;8.142;2024-02-16T03:22:23;3.40;;;2.40;;
18100;SDS011;9177;49.156;8.142;2024-02-16T03:24:51;2.40;;;1.97;;
18100;SDS011;9177;49.156;8.142;2024-02-16T03:27:18;2.67;;;2.37;;
18100;SDS011;9177;49.156;8.142;2024-02-16T03:29:46;2.90;;;2.10;;
18100;SDS011;9177;49.156;8.142;2024-02-16T03:32:13;3.47;;;2.07;;
18100;SDS011;9177;49.156;8.142;2024-02-16T03:34:41;2.40;;;2.20;;
18100;SDS011;9177;49.156;8.142;2024-02-16T03:37:08;2.33;;;1.93;;
18100;SDS011;9177;49.156;8.142;2024-02-16T03:39:35;2.30;;;2.10;;
18100;SDS011;9177;49.156;8.142;2024-02-16T03:42:03;2.37;;;2.10;;
18100;SDS011;9177;49.156;8.142;2024-02-16T03:44:31;2.80;;;2.40;;
18100;SDS011;9177;49.156;8.142;2024-02-16T03:46:59;2.10;;;1.90;;
18100;SDS011;9177;49.156;8.142;2024-02-16T03:49:26;2.63;;;2.00;;
18100;SDS011;9177;49.156;8.142;2024-02-16T03:51:54;2.60;;;2.37;;
18100;SDS011;9177;49.156;8.142;2024-02-16T03:54:21;3.53;;;2.20;;
18100;SDS011;9177;49.156;8.142;2024-02-16T03:56:50;2.73;;;2.17;;
18100;SDS011;9177;49.156;8.142;2024-02-16T03:59:19;3.07;;;2.43;;
18100;SDS011;9177;49.156;8.142;2024-02-16T04:01:46;3.03;;;2.40;;
18100;SDS011;9177;49.156;8.142;2024-02-16T04:04:15;2.30;;;2.10;;
18100;SDS011;9177;49.156;8.142;2024-02-16T04:06:43;3.13;;;2.27;;
18100;SDS011;9177;49.156;8.142;2024-02-16T04:09:10;2.20;;;2.00;;
18100;SDS011;9177;49.156;8.142;2024-02-16T04:11:37;2.83;;;2.30;;
18100;SDS011;9177;49.156;8.142;2024-02-16T04:14:04;2.50;;;2.30;;
18100;SDS011;9177;49.156;8.142;2024-02-16T04:16:32;2.90;;;2.23;;
18100;SDS011;9177;49.156;8.142;2024-02-16T04:18:59;2.27;;;2.00;;
18100;SDS011;9177;49.156;8.142;2024-02-16T04:21:30;2.30;;;2.10;;
18100;SDS011;9177;49.156;8.142;2024-02-16T04:23:57;2.37;;;2.17;;
18100;SDS011;9177;49.156;8.142;2024-02-16T04:26:24;2.60;;;2.00;;
18100;SDS011;9177;49.156;8.142;2024-02-16T04:28:52;2.20;;;2.00;;
18100;SDS011;9177;49.156;8.142;2024-02-16T04:31:19;2.67;;;2.23;;
18100;SDS011;9177;49.156;8.142;2024-02-16T04:33:46;2.30;;;1.97;;
18100;SDS011;9177;49.156;8.142;2024-02-16T04:36:14;3.83;;;2.50;;
18100;SDS011;9177;49.156;8.142;2024-02-16T04:38:43;2.60;;;2.40;;
18100;SDS011;9177;49.156;8.142;2024-02-16T04:41:10;2.83;;;2.23;;
18100;SDS011;9177;49.156;8.142;2024-02-16T04:43:37;2.30;;;2.10;;
18100;SDS011;9177;49.156;8.142;2024-02-16T04:46:04;2.67;;;2.40;;
18100;SDS011;9177;49.156;8.142;2024-02-16T04:48:31;2.43;;;2.03;;
18100;SDS011;9177;49.156;8.142;2024-02-16T04:50:59;2.60;;;2.10;;
18100;SDS011;9177;49.156;8.142;2024-02-16T04:53:27;2.37;;;2.17;;
18100;SDS011;9177;49.156;8.142;2024-02-16T04:55:58;2.60;;;2.33;;
18100;SDS011;9177;49.156;8.142;2024-02-16T04:58:27;2.53;;;2.10;;
18100;SDS011;9177;49.156;8.142;2024-02-16T05:00:54;2.20;;;2.00;;
18100;SDS011;9177;49.156;8.142;2024-02-16T05:03:21;2.03;;;1.80;;
18100;SDS011;9177;49.156;8.142;2024-02-16T05:05:48;2.43;;;2.17;;
18100;SDS011;9177;49.156;8.142;2024-02-16T05:08:16;2.17;;;1.97;;
18100;SDS011;9177;49.156;8.142;2024-02-16T05:10:43;2.93;;;2.33;;
18100;SDS011;9177;49.156;8.142;2024-02-16T05:13:12;2.60;;;2.40;;
18100;SDS011;9177;49.156;8.142;2024-02-16T05:15:39;3.07;;;2.17;;
18100;SDS011;9177;49.156;8.142;2024-02-16T05:18:06;2.20;;;1.90;;
18100;SDS011;9177;49.156;8.142;2024-02-16T05:20:36;2.33;;;2.00;;
18100;SDS011;9177;49.156;8.142;2024-02-16T05:23:03;2.40;;;2.20;;
18100;SDS011;9177;49.156;8.142;2024-02-16T05:25:30;4.50;;;2.20;;
18100;SDS011;9177;49.156;8.142;2024-02-16T05:27:57;3.17;;;2.20;;
18100;SDS011;9177;49.156;8.142;2024-02-16T05:30:26;2.30;;;2.10;;
18100;SDS011;9177;49.156;8.142;2024-02-16T05:32:53;2.80;;;2.23;;
18100;SDS011;9177;49.156;8.142;2024-02-16T05:35:23;3.23;;;2.20;;
18100;SDS011;9177;49.156;8.142;2024-02-16T05:37:54;2.73;;;2.33;;
18100;SDS011;9177;49.156;8.142;2024-02-16T05:40:20;4.13;;;2.37;;
18100;SDS011;9177;49.156;8.142;2024-02-16T05:42:50;2.40;;;2.20;;
18100;SDS011;9177;49.156;8.142;2024-02-16T05:45:18;3.40;;;2.57;;
18100;SDS011;9177;49.156;8.142;2024-02-16T05:47:48;2.90;;;2.30;;
18100;SDS011;9177;49.156;8.142;2024-02-16T05:50:16;2.93;;;2.23;;
18100;SDS011;9177;49.156;8.142;2024-02-16T05:52:44;3.27;;;2.03;;
18100;SDS011;9177;49.156;8.142;2024-02-16T05:55:11;4.50;;;2.43;;
18100;SDS011;9177;49.156;8.142;2024-02-16T05:57:39;4.00;;;2.10;;
18100;SDS011;9177;49.156;8.142;2024-02-16T06:00:07;4.47;;;2.50;;
18100;SDS011;9177;49.156;8.142;2024-02-16T06:02:36;3.17;;;2.13;;
18100;SDS011;9177;49.156;8.142;2024-02-16T06:05:05;2.77;;;2.23;;
18100;SDS011;9177;49.156;8.142;2024-02-16T06:07:33;2.97;;;2.30;;
18100;SDS011;9177;49.156;8.142;2024-02-16T06:10:03;2.57;;;2.30;;
18100;SDS011;9177;49.156;8.142;2024-02-16T06:12:36;3.03;;;2.27;;
18100;SDS011;9177;49.156;8.142;2024-02-16T06:15:03;2.90;;;1.93;;
18100;SDS011;9177;49.156;8.142;2024-02-16T06:17:31;3.00;;;2.33;;
18100;SDS011;9177;49.156;8.142;2024-02-16T06:19:58;2.33;;;1.90;;
18100;SDS011;9177;49.156;8.142;2024-02-16T06:22:27;5.20;;;2.20;;
18100;SDS011;9177;49.156;8.142;2024-02-16T06:24:54;4.73;;;2.00;;
18100;SDS011;9177;49.156;8.142;2024-02-16T06:27:23;2.97;;;2.40;;
18100;SDS011;9177;49.156;8.142;2024-02-16T06:29:50;3.60;;;2.07;;
18100;SDS011;9177;49.156;8.142;2024-02-16T06:32:17;5.67;;;2.50;;
18100;SDS011;9177;49.156;8.142;2024-02-16T06:34:45;3.27;;;2.00;;
18100;SDS011;9177;49.156;8.142;2024-02-16T06:37:12;4.50;;;2.03;;
18100;SDS011;9177;49.156;8.142;2024-02-16T06:39:42;3.27;;;2.43;;
18100;SDS011;9177;49.156;8.142;2024-02-16T06:42:11;2.63;;;2.00;;
18100;SDS011;9177;49.156;8.142;2024-02-16T06:44:38;4.27;;;2.20;;
18100;SDS011;9177;49.156;8.142;2024-02-16T06:47:06;2.93;;;1.90;;
18100;SDS011;9177;49.156;8.142;2024-02-16T06:49:33;3.43;;;2.20;;
18100;SDS011;9177;49.156;8.142;2024-02-16T06:52:01;6.60;;;2.67;;
18100;SDS011;9177;49.156;8.142;2024-02-16T06:54:28;3.43;;;2.30;;
18100;SDS011;9177;49.156;8.142;2024-02-16T06:56:57;2.83;;;1.93;;
18100;SDS011;9177;49.156;8.142;2024-02-16T06:59:28;3.83;;;2.17;;
18100;SDS011;9177;49.156;8.142;2024-02-16T07:01:55;4.07;;;2.13;;
18100;SDS011;9177;49.156;8.142;2024-02-16T07:04:22;2.40;;;1.93;;
18100;SDS011;9177;49.156;8.142;2024-02-16T07:06:49;4.27;;;2.10;;
18100;SDS011;9177;49.156;8.142;2024-02-16T07:09:17;2.83;;;2.13;;
18100;SDS011;9177;49.156;8.142;2024-02-16T07:11:47;4.43;;;2.40;;
18100;SDS011;9177;49.156;8.142;2024-02-16T07:14:17;4.93;;;2.27;;
18100;SDS011;9177;49.156;8.142;2024-02-16T07:16:44;6.37;;;2.23;;
18100;SDS011;9177;49.156;8.142;2024-02-16T07:19:11;6.43;;;2.30;;
18100;SDS011;9177;49.156;8.142;2024-02-16T07:21:39;5.03;;;2.50;;
18100;SDS011;9177;49.156;8.142;2024-02-16T07:24:06;6.17;;;2.10;;
18100;SDS011;9177;49.156;8.142;2024-02-16T07:26:34;3.77;;;2.10;;
18100;SDS011;9177;49.156;8.142;2024-02-16T07:29:01;4.23;;;2.27;;
18100;SDS011;9177;49.156;8.142;2024-02-16T07:31:32;2.80;;;2.40;;
18100;SDS011;9177;49.156;8.142;2024-02-16T07:34:00;2.40;;;1.90;;
18100;SDS011;9177;49.156;8.142;2024-02-16T07:36:27;3.87;;;2.20;;
18100;SDS011;9177;49.156;8.142;2024-02-16T07:38:54;4.10;;;2.13;;
18100;SDS011;9177;49.156;8.142;2024-02-16T07:41:21;3.07;;;2.27;;
18100;SDS011;9177;49.156;8.142;2024-02-16T07:43:49;2.67;;;2.10;;
18100;SDS011;9177;49.156;8.142;2024-02-16T07:46:16;3.80;;;2.10;;
18100;SDS011;9177;49.156;8.142;2024-02-16T07:48:44;2.60;;;1.90;;
18100;SDS011;9177;49.156;8.142;2024-02-16T07:51:12;4.17;;;2.07;;
18100;SDS011;9177;49.156;8.142;2024-02-16T07:53:39;4.10;;;2.20;;
18100;SDS011;9177;49.156;8.142;2024-02-16T07:56:08;4.97;;;2.23;;
18100;SDS011;9177;49.156;8.142;2024-02-16T07:58:35;4.70;;;2.40;;
18100;SDS011;9177;49.156;8.142;2024-02-16T08:01:02;5.77;;;2.27;;
18100;SDS011;9177;49.156;8.142;2024-02-16T08:03:29;3.60;;;2.30;;
18100;SDS011;9177;49.156;8.142;2024-02-16T08:06:00;4.10;;;2.30;;
18100;SDS011;9177;49.156;8.142;2024-02-16T08:08:30;5.17;;;2.23;;
18100;SDS011;9177;49.156;8.142;2024-02-16T08:10:57;3.93;;;2.27;;
18100;SDS011;9177;49.156;8.142;2024-02-16T08:13:24;6.20;;;2.17;;
18100;SDS011;9177;49.156;8.142;2024-02-16T08:15:51;4.90;;;1.70;;
18100;SDS011;9177;49.156;8.142;2024-02-16T08:18:18;2.97;;;2.30;;
18100;SDS011;9177;49.156;8.142;2024-02-16T08:20:46;5.27;;;2.00;;
18100;SDS011;9177;49.156;8.142;2024-02-16T08:23:14;5.33;;;2.70;;
18100;SDS011;9177;49.156;8.142;2024-02-16T08:25:41;5.40;;;2.17;;
18100;SDS011;9177;49.156;8.142;2024-02-16T08:28:08;5.20;;;2.00;;
18100;SDS011;9177;49.156;8.142;2024-02-16T08:30:35;5.43;;;2.13;;
18100;SDS011;9177;49.156;8.142;2024-02-16T08:33:06;3.70;;;2.07;;
18100;SDS011;9177;49.156;8.142;2024-02-16T08:35:33;3.95;;;2.20;;
18100;SDS011;9177;49.156;8.142;2024-02-16T08:38:00;3.45;;;2.10;;
18100;SDS011;9177;49.156;8.142;2024-02-16T08:40:29;2.50;;;2.10;;
18100;SDS011;9177;49.156;8.142;2024-02-16T08:42:56;2.67;;;2.00;;
18100;SDS011;9177;49.156;8.142;2024-02-16T08:45:26;4.60;;;2.10;;
18100;SDS011;9177;49.156;8.142;2024-02-16T08:47:53;5.05;;;2.15;;
18100;SDS011;9177;49.156;8.142;2024-02-16T08:50:22;3.50;;;2.30;;
18100;SDS011;9177;49.156;8.142;2024-02-16T08:52:52;4.37;;;2.30;;
18100;SDS011;9177;49.156;8.142;2024-02-16T08:55:19;3.40;;;2.10;;
18100;SDS011;9177;49.156;8.142;2024-02-16T08:57:48;4.88;;;2.40;;
18100;SDS011;9177;49.156;8.142;2024-02-16T09:00:15;4.00;;;1.90;;
18100;SDS011;9177;49.156;8.142;2024-02-16T09:02:43;4.20;;;2.13;;
18100;SDS011;9177;49.156;8.142;2024-02-16T09:05:11;5.75;;;2.30;;
18100;SDS011;9177;49.156;8.142;2024-02-16T09:07:39;5.30;;;2.40;;
18100;SDS011;9177;49.156;8.142;2024-02-16T09:10:06;4.97;;;2.10;;
18100;SDS011;9177;49.156;8.142;2024-02-16T09:12:37;5.33;;;2.53;;
18100;SDS011;9177;49.156;8.142;2024-02-16T09:15:08;3.80;;;2.27;;
18100;SDS011;9177;49.156;8.142;2024-02-16T09:17:37;3.97;;;1.70;;
18100;SDS011;9177;49.156;8.142;2024-02-16T09:20:05;3.03;;;2.10;;
18100;SDS011;9177;49.156;8.142;2024-02-16T09:22:33;5.47;;;2.53;;
18100;SDS011;9177;49.156;8.142;2024-02-16T09:25:01;4.43;;;2.13;;
18100;SDS011;9177;49.156;8.142;2024-02-16T09:27:28;3.50;;;2.30;;
18100;SDS011;9177;49.156;8.142;2024-02-16T09:29:56;6.70;;;1.87;;
18100;SDS011;9177;49.156;8.142;2024-02-16T09:32:25;3.07;;;2.10;;
18100;SDS011;9177;49.156;8.142;2024-02-16T09:34:52;4.17;;;1.93;;
18100;SDS011;9177;49.156;8.142;2024-02-16T09:37:21;4.33;;;2.07;;
18100;SDS011;9177;49.156;8.142;2024-02-16T09:39:48;6.00;;;2.07;;
18100;SDS011;9177;49.156;8.142;2024-02-16T09:42:15;2.42;;;1.90;;
18100;SDS011;9177;49.156;8.142;2024-02-16T09:44:43;5.70;;;2.15;;
18100;SDS011;9177;49.156;8.142;2024-02-16T09:47:11;6.70;;;2.03;;
18100;SDS011;9177;49.156;8.142;2024-02-16T09:49:40;3.75;;;2.33;;
18100;SDS011;9177;49.156;8.142;2024-02-16T09:52:08;3.97;;;2.03;;
18100;SDS011;9177;49.156;8.142;2024-02-16T09:54:37;4.07;;;2.03;;
18100;SDS011;9177;49.156;8.142;2024-02-16T09:57:05;4.40;;;1.93;;
18100;SDS011;9177;49.156;8.142;2024-02-16T09:59:32;4.93;;;1.97;;
18100;SDS011;9177;49.156;8.142;2024-02-16T10:02:00;5.03;;;2.07;;
18100;SDS011;9177;49.156;8.142;2024-02-16T10:04:27;4.60;;;1.80;;
18100;SDS011;9177;49.156;8.142;2024-02-16T10:06:56;3.80;;;2.00;;
18100;SDS011;9177;49.156;8.142;2024-02-16T10:09:24;6.72;;;2.05;;
18100;SDS011;9177;49.156;8.142;2024-02-16T10:11:54;4.70;;;2.30;;
18100;SDS011;9177;49.156;8.142;2024-02-16T10:14:22;2.73;;;2.10;;
18100;SDS011;9177;49.156;8.142;2024-02-16T10:16:58;4.13;;;2.00;;
18100;SDS011;9177;49.156;8.142;2024-02-16T10:19:27;5.80;;;2.22;;
18100;SDS011;9177;49.156;8.142;2024-02-16T10:22:06;6.60;;;2.20;;
18100;SDS011;9177;49.156;8.142;2024-02-16T10:24:34;3.80;;;2.27;;
18100;SDS011;9177;49.156;8.142;2024-02-16T10:27:03;4.80;;;2.00;;
18100;SDS011;9177;49.156;8.142;2024-02-16T10:29:32;3.20;;;2.10;;
18100;SDS011;9177;49.156;8.142;2024-02-16T10:32:00;3.47;;;2.10;;
18100;SDS011;9177;49.156;8.142;2024-02-16T10:34:27;4.25;;;1.83;;
18100;SDS011;9177;49.156;8.142;2024-02-16T10:36:56;3.87;;;1.93;;
18100;SDS011;9177;49.156;8.142;2024-02-16T10:39:26;4.40;;;1.80;;
18100;SDS011;9177;49.156;8.142;2024-02-16T10:41:54;5.17;;;2.20;;
18100;SDS011;9177;49.156;8.142;2024-02-16T10:44:24;3.57;;;1.80;;
18100;SDS011;9177;49.156;8.142;2024-02-16T10:46:53;5.40;;;2.15;;
18100;SDS011;9177;49.156;8.142;2024-02-16T10:49:22;4.20;;;2.40;;
18100;SDS011;9177;49.156;8.142;2024-02-16T10:51:51;3.63;;;2.10;;
18100;SDS011;9177;49.156;8.142;2024-02-16T10:54:22;3.67;;;1.80;;
18100;SDS011;9177;49.156;8.142;2024-02-16T10:56:55;2.78;;;1.90;;
18100;SDS011;9177;49.156;8.142;2024-02-16T10:59:22;3.23;;;1.77;;
18100;SDS011;9177;49.156;8.142;2024-02-16T11:01:58;2.97;;;2.33;;
18100;SDS011;9177;49.156;8.142;2024-02-16T11:04:35;4.05;;;2.00;;
18100;SDS011;9177;49.156;8.142;2024-02-16T11:07:09;3.60;;;1.90;;
18100;SDS011;9177;49.156;8.142;2024-02-16T11:09:38;3.95;;;2.00;;
18100;SDS011;9177;49.156;8.142;2024-02-16T11:12:08;5.30;;;1.80;;
18100;SDS011;9177;49.156;8.142;2024-02-16T11:14:37;2.83;;;1.87;;
18100;SDS011;9177;49.156;8.142;2024-02-16T11:17:08;2.95;;;2.15;;
18100;SDS011;9177;49.156;8.142;2024-02-16T11:19:36;2.10;;;1.80;;
18100;SDS011;9177;49.156;8.142;2024-02-16T11:22:06;3.13;;;1.83;;
18100;SDS011;9177;49.156;8.142;2024-02-16T11:24:34;3.67;;;2.03;;
18100;SDS011;9177;49.156;8.142;2024-02-16T11:27:02;3.00;;;1.70;;
18100;SDS011;9177;49.156;8.142;2024-02-16T11:29:32;4.53;;;1.80;;
18100;SDS011;9177;49.156;8.142;2024-02-16T11:32:01;5.05;;;1.80;;
18100;SDS011;9177;49.156;8.142;2024-02-16T11:34:29;2.75;;;1.75;;
18100;SDS011;9177;49.156;8.142;2024-02-16T11:36:58;2.17;;;1.63;;
18100;SDS011;9177;49.156;8.142;2024-02-16T11:39:26;3.97;;;1.93;;
18100;SDS011;9177;49.156;8.142;2024-02-16T11:42:01;3.67;;;1.70;;
18100;SDS011;9177;49.156;8.142;2024-02-16T11:44:29;4.40;;;1.90;;
18100;SDS011;9177;49.156;8.142;2024-02-16T11:47:01;3.33;;;2.23;;
18100;SDS011;9177;49.156;8.142;2024-02-16T11:49:40;2.97;;;1.83;;
18100;SDS011;9177;49.156;8.142;2024-02-16T11:52:07;5.33;;;1.90;;
18100;SDS011;9177;49.156;8.142;2024-02-16T11:54:34;1.97;;;1.70;;
18100;SDS011;9177;49.156;8.142;2024-02-16T11:57:03;4.15;;;2.00;;
18100;SDS011;9177;49.156;8.142;2024-02-16T11:59:32;2.78;;;1.80;;
18100;SDS011;9177;49.156;8.142;2024-02-16T12:01:59;3.03;;;1.80;;
18100;SDS011;9177;49.156;8.142;2024-02-16T12:04:28;3.23;;;1.73;;
18100;SDS011;9177;49.156;8.142;2024-02-16T12:06:57;4.03;;;1.90;;
18100;SDS011;9177;49.156;8.142;2024-02-16T12:09:24;3.63;;;1.60;;
18100;SDS011;9177;49.156;8.142;2024-02-16T12:11:52;3.67;;;1.80;;
18100;SDS011;9177;49.156;8.142;2024-02-16T12:14:21;3.00;;;1.90;;
18100;SDS011;9177;49.156;8.142;2024-02-16T12:16:50;1.97;;;1.50;;
18100;SDS011;9177;49.156;8.142;2024-02-16T12:19:24;5.10;;;1.92;;
18100;SDS011;9177;49.156;8.142;2024-02-16T12:21:52;2.33;;;1.80;;
18100;SDS011;9177;49.156;8.142;2024-02-16T12:24:20;1.75;;;1.60;;
18100;SDS011;9177;49.156;8.142;2024-02-16T12:26:47;3.83;;;1.70;;
18100;SDS011;9177;49.156;8.142;2024-02-16T12:29:15;4.78;;;1.67;;
18100;SDS011;9177;49.156;8.142;2024-02-16T12:31:43;3.03;;;1.70;;
18100;SDS011;9177;49.156;8.142;2024-02-16T12:34:14;3.72;;;1.88;;
18100;SDS011;9177;49.156;8.142;2024-02-16T12:36:41;3.93;;;1.53;;
18100;SDS011;9177;49.156;8.142;2024-02-16T12:39:08;5.30;;;1.85;;
18100;SDS011;9177;49.156;8.142;2024-02-16T12:41:37;2.40;;;1.80;;
18100;SDS011;9177;49.156;8.142;2024-02-16T12:44:06;2.53;;;1.73;;
18100;SDS011;9177;49.156;8.142;2024-02-16T12:46:35;2.80;;;1.67;;
18100;SDS011;9177;49.156;8.142;2024-02-16T12:49:04;2.95;;;1.80;;
18100;SDS011;9177;49.156;8.142;2024-02-16T12:51:32;6.60;;;1.75;;
18100;SDS011;9177;49.156;8.142;2024-02-16T12:54:00;2.42;;;1.80;;
18100;SDS011;9177;49.156;8.142;2024-02-16T12:56:29;3.15;;;1.60;;
18100;SDS011;9177;49.156;8.142;2024-02-16T12:58:56;1.67;;;1.25;;
18100;SDS011;9177;49.156;8.142;2024-02-16T13:01:25;3.80;;;1.50;;
18100;SDS011;9177;49.156;8.142;2024-02-16T13:03:53;2.03;;;1.33;;
18100;SDS011;9177;49.156;8.142;2024-02-16T13:06:20;8.18;;;2.08;;
18100;SDS011;9177;49.156;8.142;2024-02-16T13:08:48;3.65;;;1.52;;
18100;SDS011;9177;49.156;8.142;2024-02-16T13:11:15;3.85;;;1.63;;
18100;SDS011;9177;49.156;8.142;2024-02-16T13:13:43;6.60;;;1.73;;
18100;SDS011;9177;49.156;8.142;2024-02-16T13:16:10;3.58;;;1.60;;
18100;SDS011;9177;49.156;8.142;2024-02-16T13:18:37;4.05;;;1.70;;
18100;SDS011;9177;49.156;8.142;2024-02-16T13:21:06;4.10;;;1.40;;
18100;SDS011;9177;49.156;8.142;2024-02-16T13:23:33;3.47;;;1.55;;
18100;SDS011;9177;49.156;8.142;2024-02-16T13:26:03;5.83;;;1.70;;
18100;SDS011;9177;49.156;8.142;2024-02-16T13:28:32;3.05;;;1.58;;
18100;SDS011;9177;49.156;8.142;2024-02-16T13:30:59;2.53;;;1.53;;
18100;SDS011;9177;49.156;8.142;2024-02-16T13:33:26;1.80;;;1.33;;
18100;SDS011;9177;49.156;8.142;2024-02-16T13:35:53;4.00;;;1.67;;
18100;SDS011;9177;49.156;8.142;2024-02-16T13:38:21;1.90;;;1.40;;
18100;SDS011;9177;49.156;8.142;2024-02-16T13:40:48;1.58;;;1.40;;
18100;SDS011;9177;49.156;8.142;2024-02-16T13:43:16;6.03;;;1.50;;
18100;SDS011;9177;49.156;8.142;2024-02-16T13:45:47;2.97;;;1.42;;
18100;SDS011;9177;49.156;8.142;2024-02-16T13:48:16;3.72;;;1.83;;
18100;SDS011;9177;49.156;8.142;2024-02-16T13:50:44;4.45;;;1.50;;
18100;SDS011;9177;49.156;8.142;2024-02-16T13:53:15;6.78;;;1.80;;
18100;SDS011;9177;49.156;8.142;2024-02-16T13:55:43;6.80;;;2.05;;
18100;SDS011;9177;49.156;8.142;2024-02-16T13:58:10;6.65;;;1.90;;
18100;SDS011;9177;49.156;8.142;2024-02-16T14:00:39;7.53;;;1.80;;
18100;SDS011;9177;49.156;8.142;2024-02-16T14:03:08;6.07;;;1.65;;
18100;SDS011;9177;49.156;8.142;2024-02-16T14:05:36;4.97;;;1.80;;
18100;SDS011;9177;49.156;8.142;2024-02-16T14:08:05;5.45;;;1.75;;
18100;SDS011;9177;49.156;8.142;2024-02-16T14:10:33;3.30;;;1.80;;
18100;SDS011;9177;49.156;8.142;2024-02-16T14:13:00;4.93;;;1.80;;
18100;SDS011;9177;49.156;8.142;2024-02-16T14:15:27;7.80;;;2.08;;
18100;SDS011;9177;49.156;8.142;2024-02-16T14:17:56;3.03;;;1.67;;
18100;SDS011;9177;49.156;8.142;2024-02-16T14:20:23;5.95;;;1.70;;
18100;SDS011;9177;49.156;8.142;2024-02-16T14:22:50;4.40;;;1.45;;
18100;SDS011;9177;49.156;8.142;2024-02-16T14:25:18;8.52;;;2.13;;
18100;SDS011;9177;49.156;8.142;2024-02-16T14:27:45;4.40;;;1.58;;
18100;SDS011;9177;49.156;8.142;2024-02-16T14:30:13;5.45;;;1.70;;
18100;SDS011;9177;49.156;8.142;2024-02-16T14:32:40;3.97;;;1.27;;
18100;SDS011;9177;49.156;8.142;2024-02-16T14:35:09;5.03;;;1.60;;
18100;SDS011;9177;49.156;8.142;2024-02-16T14:37:36;3.55;;;1.48;;
18100;SDS011;9177;49.156;8.142;2024-02-16T14:40:05;6.65;;;1.77;;
18100;SDS011;9177;49.156;8.142;2024-02-16T14:42:35;4.03;;;1.50;;
18100;SDS011;9177;49.156;8.142;2024-02-16T14:45:04;4.30;;;1.40;;
18100;SDS011;9177;49.156;8.142;2024-02-16T14:47:34;4.33;;;1.40;;
18100;SDS011;9177;49.156;8.142;2024-02-16T14:50:02;5.13;;;1.77;;
18100;SDS011;9177;49.156;8.142;2024-02-16T14:52:34;4.28;;;1.70;;
18100;SDS011;9177;49.156;8.142;2024-02-16T14:55:02;6.27;;;1.90;;
18100;SDS011;9177;49.156;8.142;2024-02-16T14:57:30;4.25;;;1.67;;
18100;SDS011;9177;49.156;8.142;2024-02-16T14:59:57;3.43;;;1.70;;
18100;SDS011;9177;49.156;8.142;2024-02-16T15:02:24;2.57;;;1.40;;
18100;SDS011;9177;49.156;8.142;2024-02-16T15:04:51;3.40;;;1.40;;